Time;durP1;ratioP1;P1;durP2;ratioP2;P2;SDS_P1;SDS_P2;PMS_P1;PMS_P2;Temp;Humidity;BMP_temperature;BMP_pressure;BME280_temperature;BME280_humidity;BME280_pressure;Samples;Min_cycle;Max_cycle;Signal;HPM_P1;HPM_P2
2022/04/10 00:00:00;;;;;;;5.20;4.53;;;1.50;1.00;;;;;;4993469;28;20180;-77
2022/04/10 00:02:26;;;;;;;9.40;5.30;;;1.50;1.00;;;;;;4993015;28;20178;-77
2022/04/10 00:04:52;;;;;;;6.60;4.73;;;;;;;;;;4993378;28;20220;-77
2022/04/10 00:07:18;;;;;;;6.00;4.67;;;;;;;;;;4991983;28;20173;-77
2022/04/10 00:09:44;;;;;;;12.13;4.70;;;;;;;;;;4993293;28;20416;-77
2022/04/10 00:12:10;;;;;;;8.50;5.20;;;;;;;;;;4992689;28;20432;-77
2022/04/10 00:14:36;;;;;;;5.75;4.38;;;;;;;;;;4992928;28;20508;-77
2022/04/10 00:17:02;;;;;;;8.75;4.80;;;;;;;;;;4993046;28;20216;-81
2022/04/10 00:19:28;;;;;;;6.53;5.25;;;;;;;;;;4993434;28;20228;-78
2022/04/10 00:21:54;;;;;;;10.32;5.07;;;;;;;;;;4993031;28;20174;-78
2022/04/10 00:24:20;;;;;;;8.93;5.20;;;;;;;;;;4991441;28;20600;-78
2022/04/10 00:26:46;;;;;;;9.70;5.60;;;;;;;;;;4993015;28;20413;-78
2022/04/10 00:29:15;;;;;;;10.68;6.82;;;1.10;1.00;;;;;;4993222;28;20267;-78
2022/04/10 00:31:41;;;;;;;7.38;5.90;;;1.10;1.00;;;;;;4996358;28;20213;-78
2022/04/10 00:34:07;;;;;;;10.90;5.77;;;;;;;;;;4997010;28;20768;-78
2022/04/10 00:36:33;;;;;;;8.80;5.80;;;;;;;;;;4996365;28;20206;-78
2022/04/10 00:39:00;;;;;;;7.10;5.27;;;;;;;;;;4995189;28;20990;-78
2022/04/10 00:41:26;;;;;;;6.95;5.18;;;1.10;1.00;;;;;;4995257;28;20432;-78
2022/04/10 00:44:21;;;;;;;7.45;5.45;;;1.00;1.00;;;;;;4995477;28;20745;-78
2022/04/10 00:46:49;;;;;;;8.32;5.15;;;;;;;;;;4974544;28;20216;-78
2022/04/10 00:49:15;;;;;;;10.55;5.70;;;0.90;1.00;;;;;;4965165;28;20207;-78
2022/04/10 00:51:46;;;;;;;6.30;5.50;;;1.00;1.00;;;;;;4975042;28;20179;-77
2022/04/10 00:54:15;;;;;;;8.07;5.25;;;1.00;1.00;;;;;;4974751;28;20186;-77
2022/04/10 00:56:41;;;;;;;10.10;4.97;;;1.00;1.00;;;;;;4974701;28;20218;-77
2022/04/10 00:59:07;;;;;;;9.52;5.68;;;0.90;1.00;;;;;;4974574;28;20179;-77
2022/04/10 01:01:34;;;;;;;10.02;5.82;;;0.90;1.00;;;;;;4974837;28;20198;-77
2022/04/10 01:04:00;;;;;;;7.68;4.95;;;;;;;;;;4974694;28;20190;-78
2022/04/10 01:06:26;;;;;;;5.95;5.05;;;;;;;;;;4974559;28;20187;-78
2022/04/10 01:08:52;;;;;;;7.40;5.00;;;;;;;;;;4974317;28;20178;-78
2022/04/10 01:11:18;;;;;;;11.30;5.00;;;;;;;;;;4974628;28;20661;-77
2022/04/10 01:13:45;;;;;;;9.55;4.85;;;0.90;1.00;;;;;;4974136;28;20182;-77
2022/04/10 01:16:10;;;;;;;7.80;4.75;;;0.80;1.00;;;;;;4974276;28;20705;-77
2022/04/10 01:18:56;;;;;;;14.33;5.27;;;0.80;1.00;;;;;;4974390;28;20297;-77
2022/04/10 01:21:24;;;;;;;6.53;4.20;;;0.80;1.00;;;;;;4955648;28;20438;-78
2022/04/10 01:23:53;;;;;;;5.28;4.35;;;0.80;1.00;;;;;;4984836;28;20185;-77
2022/04/10 01:26:20;;;;;;;6.70;4.47;;;0.80;1.00;;;;;;4993627;28;20184;-77
2022/04/10 01:29:08;;;;;;;5.22;4.40;;;0.80;1.00;;;;;;4993403;28;20225;-77
2022/04/10 01:31:35;;;;;;;15.48;4.18;;;0.70;1.00;;;;;;4991640;28;20548;-77
2022/04/10 01:34:07;;;;;;;7.35;4.28;;;0.80;1.00;;;;;;4977981;28;20181;-78
2022/04/10 01:36:34;;;;;;;5.05;3.75;;;0.80;1.00;;;;;;4993539;28;20345;-77
2022/04/10 01:39:01;;;;;;;4.15;3.75;;;0.70;1.00;;;;;;4993162;28;20177;-77
2022/04/10 01:41:28;;;;;;;5.00;3.72;;;0.80;1.00;;;;;;4990327;28;20349;-78
2022/04/10 01:43:55;;;;;;;6.63;3.63;;;0.70;1.00;;;;;;4983261;28;20186;-77
2022/04/10 01:46:23;;;;;;;5.78;3.58;;;0.80;1.00;;;;;;4992833;28;20239;-77
2022/04/10 01:48:49;;;;;;;7.68;4.20;;;;;;;;;;4993074;28;20178;-80
2022/04/10 01:51:15;;;;;;;7.73;3.50;;;;;;;;;;4989525;28;20269;-81
2022/04/10 01:53:41;;;;;;;6.00;3.83;;;0.70;1.00;;;;;;4986042;28;20409;-81
2022/04/10 01:56:08;;;;;;;5.50;3.75;;;0.70;1.00;;;;;;4995069;28;20217;-81
2022/04/10 01:58:36;;;;;;;6.97;3.60;;;0.70;1.00;;;;;;4994864;28;20192;-81
2022/04/10 02:01:06;;;;;;;4.47;3.40;;;0.70;1.00;;;;;;4994875;28;20178;-81
2022/04/10 02:03:32;;;;;;;5.60;3.95;;;0.70;1.00;;;;;;4995175;28;20564;-81
2022/04/10 02:06:00;;;;;;;4.80;3.80;;;;;;;;;;4995388;28;20185;-78
2022/04/10 02:08:26;;;;;;;8.38;3.40;;;;;;;;;;4995006;28;20205;-78
2022/04/10 02:10:51;;;;;;;6.28;4.18;;;0.70;1.00;;;;;;4993555;28;20537;-78
2022/04/10 02:13:19;;;;;;;6.83;3.60;;;;;;;;;;4995556;28;20181;-77
2022/04/10 02:15:45;;;;;;;3.95;3.45;;;;;;;;;;4994849;28;20198;-77
2022/04/10 02:18:10;;;;;;;4.70;3.47;;;0.60;1.00;;;;;;4995030;28;20181;-77
2022/04/10 02:20:36;;;;;;;3.90;3.40;;;0.50;1.00;;;;;;4995346;28;20178;-81
2022/04/10 02:23:02;;;;;;;7.27;3.70;;;;;;;;;;4994714;28;20178;-81
2022/04/10 02:25:28;;;;;;;9.20;3.97;;;;;;;;;;4994755;28;20185;-81
2022/04/10 02:27:54;;;;;;;11.90;4.10;;;;;;;;;;4994808;28;20408;-81
2022/04/10 02:30:20;;;;;;;7.97;3.80;;;;;;;;;;4994537;28;20412;-81
2022/04/10 02:32:46;;;;;;;3.85;3.25;;;0.40;1.00;;;;;;4994428;28;20428;-81
2022/04/10 02:35:12;;;;;;;6.30;4.47;;;;;;;;;;4993331;28;20201;-80
2022/04/10 02:37:39;;;;;;;4.40;3.22;;;0.40;1.00;;;;;;4994631;28;20166;-81
2022/04/10 02:40:05;;;;;;;3.95;3.55;;;0.30;1.00;;;;;;4994487;28;20184;-81
2022/04/10 02:42:34;;;;;;;3.78;3.45;;;0.30;1.00;;;;;;4994558;28;20178;-81
2022/04/10 02:45:01;;;;;;;4.13;3.72;;;0.30;1.00;;;;;;4994215;28;20516;-81
2022/04/10 02:47:27;;;;;;;6.05;3.80;;;;;;;;;;5009334;28;20186;-81
2022/04/10 02:49:52;;;;;;;5.28;3.20;;;0.20;1.00;;;;;;4994351;28;20180;-80
2022/04/10 02:52:18;;;;;;;3.63;3.17;;;;;;;;;;4993691;28;20264;-80
2022/04/10 02:54:47;;;;;;;4.40;3.50;;;0.20;1.00;;;;;;4993884;28;20585;-80
2022/04/10 02:57:12;;;;;;;3.50;3.20;;;0.10;1.00;;;;;;5008995;28;20234;-80
2022/04/10 02:59:38;;;;;;;3.90;3.60;;;;;;;;;;4994452;28;20197;-80
2022/04/10 03:02:04;;;;;;;7.82;3.67;;;;;;;;;;4994150;28;20169;-80
2022/04/10 03:04:30;;;;;;;7.05;3.50;;;0.10;1.00;;;;;;4993779;28;20193;-79
2022/04/10 03:06:56;;;;;;;3.57;3.27;;;;;;;;;;4994075;28;20193;-77
2022/04/10 03:09:22;;;;;;;5.40;4.10;;;;;;;;;;4994048;28;20188;-77
2022/04/10 03:11:48;;;;;;;6.45;3.83;;;;;;;;;;4993800;28;20178;-77
2022/04/10 03:14:14;;;;;;;6.75;4.00;;;0.00;1.00;;;;;;5000877;28;20186;-77
2022/04/10 03:16:40;;;;;;;6.70;3.87;;;;;;;;;;4993554;28;20288;-77
2022/04/10 03:19:06;;;;;;;7.10;4.07;;;0.00;1.00;;;;;;4992432;28;20609;-77
2022/04/10 03:21:32;;;;;;;7.90;3.80;;;;;;;;;;4993953;28;20264;-80
2022/04/10 03:23:58;;;;;;;6.00;3.72;;;;;;;;;;4992528;28;20560;-81
2022/04/10 03:26:24;;;;;;;6.80;4.27;;;;;;;;;;4993395;28;20181;-81
2022/04/10 03:28:50;;;;;;;7.33;4.23;;;;;;;;;;4993764;28;20413;-80
2022/04/10 03:31:16;;;;;;;6.95;4.65;;;;;;;;;;4993769;28;20415;-80
2022/04/10 03:33:41;;;;;;;9.05;4.32;;;0.00;1.00;;;;;;4992521;28;20181;-80
2022/04/10 03:36:07;;;;;;;5.80;5.30;;;;;;;;;;4992478;28;20201;-80
2022/04/10 03:38:33;;;;;;;7.80;4.87;;;;;;;;;;4993533;28;20659;-80
2022/04/10 03:40:59;;;;;;;6.10;4.90;;;;;;;;;;4992251;28;20436;-80
2022/04/10 03:43:25;;;;;;;13.82;5.90;;;;;;;;;;4993367;28;20413;-80
2022/04/10 03:45:51;;;;;;;8.20;4.83;;;-0.20;1.00;;;;;;4993602;28;20177;-80
2022/04/10 03:48:22;;;;;;;10.23;5.27;;;-0.10;1.00;;;;;;4993312;28;20432;-80
2022/04/10 03:50:47;;;;;;;8.82;6.30;;;-0.10;1.00;;;;;;4993699;28;20177;-80
2022/04/10 03:53:13;;;;;;;11.40;6.43;;;;;;;;;;4993430;28;20645;-81
2022/04/10 03:55:39;;;;;;;9.43;6.80;;;;;;;;;;4991928;28;20200;-81
2022/04/10 03:58:05;;;;;;;10.02;6.10;;;;;;;;;;4992939;28;20898;-80
2022/04/10 04:00:31;;;;;;;9.73;6.60;;;;;;;;;;4993699;28;20232;-80
2022/04/10 04:02:57;;;;;;;10.63;6.40;;;;;;;;;;4993542;28;20405;-80
2022/04/10 04:05:23;;;;;;;9.45;5.75;;;;;;;;;;4996687;28;20239;-79
2022/04/10 04:07:49;;;;;;;10.98;6.25;;;;;;;;;;4997167;28;20177;-78
2022/04/10 04:10:15;;;;;;;6.80;5.23;;;;;;;;;;4997187;28;20224;-78
2022/04/10 04:12:41;;;;;;;8.30;5.60;;;;;;;;;;5002410;28;20448;-78
2022/04/10 04:15:07;;;;;;;7.88;5.68;;;0.00;1.00;;;;;;4997143;28;21015;-78
2022/04/10 04:17:33;;;;;;;8.25;5.20;;;-0.10;1.00;;;;;;4996765;28;20584;-78
2022/04/10 04:20:01;;;;;;;10.13;5.50;;;;;;;;;;4996820;28;20244;-78
2022/04/10 04:22:27;;;;;;;8.13;4.85;;;;;;;;;;4997550;28;20170;-78
2022/04/10 04:24:52;;;;;;;5.67;4.30;;;0.00;1.00;;;;;;4989284;28;20544;-81
2022/04/10 04:27:18;;;;;;;6.73;4.77;;;-0.10;1.00;;;;;;4996186;28;20428;-78
2022/04/10 04:29:44;;;;;;;4.90;4.50;;;;;;;;;;4996348;28;20543;-78
2022/04/10 04:32:10;;;;;;;6.97;4.70;;;;;;;;;;4996763;28;20451;-76
2022/04/10 04:34:36;;;;;;;9.25;5.07;;;-0.10;1.00;;;;;;4996528;28;20186;-77
2022/04/10 04:37:02;;;;;;;5.33;4.83;;;-0.20;1.00;;;;;;4996729;28;20218;-77
2022/04/10 04:39:28;;;;;;;6.10;5.00;;;;;;;;;;4994620;28;20443;-78
2022/04/10 04:41:54;;;;;;;5.30;4.37;;;;;;;;;;4996677;28;20483;-78
2022/04/10 04:44:20;;;;;;;6.10;5.07;;;;;;;;;;4996374;28;20427;-79
2022/04/10 04:46:46;;;;;;;5.50;4.90;;;;;;;;;;4996477;28;20401;-79
2022/04/10 04:49:12;;;;;;;6.43;5.00;;;;;;;;;;4996282;28;20196;-78
2022/04/10 04:51:38;;;;;;;8.15;6.15;;;-0.30;1.00;;;;;;4995591;28;20432;-78
2022/04/10 04:54:05;;;;;;;8.48;5.85;;;-0.30;1.00;;;;;;4996156;28;20174;-78
2022/04/10 04:56:31;;;;;;;6.95;5.72;;;;;;;;;;4996377;28;20344;-78
2022/04/10 04:58:58;;;;;;;8.73;5.53;;;-0.40;1.00;;;;;;4996115;28;20178;-78
2022/04/10 05:01:24;;;;;;;6.55;5.50;;;;;;;;;;4996292;28;20173;-78
2022/04/10 05:03:50;;;;;;;11.32;6.03;;;;;;;;;;4996399;28;20173;-78
2022/04/10 05:06:15;;;;;;;8.80;6.72;;;-0.30;1.00;;;;;;4996400;28;20204;-79
2022/04/10 05:08:48;;;;;;;7.30;6.30;;;-0.30;1.00;;;;;;4996063;28;20641;-78
2022/04/10 05:11:15;;;;;;;9.35;6.20;;;;;;;;;;4996192;28;20211;-79
2022/04/10 05:13:41;;;;;;;10.00;6.22;;;-0.20;1.00;;;;;;5002841;28;20286;-78
2022/04/10 05:16:07;;;;;;;8.95;6.40;;;-0.30;1.00;;;;;;4995060;28;20209;-79
2022/04/10 05:18:33;;;;;;;8.33;6.00;;;;;;;;;;4995250;28;20649;-78
2022/04/10 05:20:59;;;;;;;6.40;5.65;;;-0.20;1.00;;;;;;4996088;28;20181;-78
2022/04/10 05:23:25;;;;;;;10.43;6.40;;;-0.10;1.00;;;;;;4996297;28;20173;-77
2022/04/10 05:25:51;;;;;;;8.00;6.73;;;;;;;;;;4995362;28;20507;-77
2022/04/10 05:28:18;;;;;;;8.25;6.82;;;;;;;;;;4994238;28;20547;-77
2022/04/10 05:30:44;;;;;;;9.35;6.57;;;;;;;;;;4995819;28;20184;-78
2022/04/10 05:33:10;;;;;;;9.68;6.28;;;;;;;;;;4995686;28;20206;-77
2022/04/10 05:35:36;;;;;;;13.73;7.43;;;;;;;;;;4995476;28;20244;-77
2022/04/10 05:38:03;;;;;;;12.45;6.75;;;;;;;;;;4995996;28;20238;-77
2022/04/10 05:40:29;;;;;;;10.05;7.13;;;;;;;;;;4995222;28;20629;-77
2022/04/10 05:42:55;;;;;;;11.77;7.03;;;;;;;;;;4995305;28;20194;-77
2022/04/10 05:45:21;;;;;;;11.98;7.15;;;;;;;;;;4995313;28;20185;-77
2022/04/10 05:47:48;;;;;;;9.13;8.23;;;1.20;1.00;;;;;;4995448;28;20257;-77
2022/04/10 05:50:14;;;;;;;8.20;7.18;;;1.60;1.00;;;;;;4995302;28;20185;-78
2022/04/10 05:52:48;;;;;;;8.77;6.43;;;1.80;1.00;;;;;;4995727;28;20227;-76
2022/04/10 05:55:17;;;;;;;7.40;6.20;;;1.90;1.00;;;;;;4995187;28;20201;-77
2022/04/10 05:57:43;;;;;;;7.15;6.25;;;2.10;1.00;;;;;;4994884;28;20189;-77
2022/04/10 06:00:11;;;;;;;9.57;6.63;;;2.20;1.00;;;;;;4995252;28;20176;-79
2022/04/10 06:02:40;;;;;;;9.07;6.03;;;2.20;1.00;;;;;;4995359;28;20170;-79
2022/04/10 06:05:07;;;;;;;9.35;5.80;;;2.40;1.00;;;;;;4995243;28;20185;-79
2022/04/10 06:07:33;;;;;;;9.25;6.07;;;;;;;;;;4995223;28;20189;-79
2022/04/10 06:09:59;;;;;;;7.32;5.65;;;;;;;;;;4994760;28;20181;-79
2022/04/10 06:12:26;;;;;;;7.10;5.82;;;2.70;1.00;;;;;;4995036;28;20188;-79
2022/04/10 06:14:52;;;;;;;7.10;5.40;;;;;;;;;;4994623;28;20193;-79
2022/04/10 06:17:18;;;;;;;6.30;5.70;;;;;;;;;;4994527;28;20651;-79
2022/04/10 06:19:45;;;;;;;8.30;5.68;;;;;;;;;;4994646;28;20896;-80
2022/04/10 06:22:11;;;;;;;5.90;5.30;;;;;;;;;;4995377;28;20174;-78
2022/04/10 06:24:38;;;;;;;7.00;4.82;;;;;;;;;;4994866;28;20174;-77
2022/04/10 06:27:04;;;;;;;6.53;4.75;;;;;;;;;;4994167;28;20542;-78
2022/04/10 06:29:30;;;;;;;5.90;5.05;;;;;;;;;;4994268;28;20177;-78
2022/04/10 06:31:56;;;;;;;8.07;4.77;;;;;;;;;;4994386;28;20192;-77
2022/04/10 06:34:22;;;;;;;4.72;3.75;;;;;;;;;;4992892;28;20499;-79
2022/04/10 06:36:48;;;;;;;7.73;4.40;;;;;;;;;;4994115;28;20664;-77
2022/04/10 06:39:15;;;;;;;7.18;5.05;;;3.30;1.00;;;;;;4994834;28;20893;-81
2022/04/10 06:41:42;;;;;;;7.35;4.65;;;3.30;1.00;;;;;;4994109;28;20258;-81
2022/04/10 06:44:08;;;;;;;10.48;5.78;;;;;;;;;;4992939;28;20182;-81
2022/04/10 06:46:34;;;;;;;7.57;4.30;;;;;;;;;;4994021;28;20186;-80
2022/04/10 06:49:00;;;;;;;5.28;4.70;;;3.70;1.00;;;;;;4993714;28;20181;-79
2022/04/10 06:51:26;;;;;;;12.33;4.70;;;;;;;;;;4994570;28;20265;-79
2022/04/10 06:53:52;;;;;;;7.03;4.82;;;;;;;;;;4994674;28;20463;-78
2022/04/10 06:56:18;;;;;;;7.97;4.50;;;;;;;;;;4993742;28;20205;-78
2022/04/10 06:58:45;;;;;;;6.27;4.90;;;;;;;;;;4993568;28;20413;-78
2022/04/10 07:01:11;;;;;;;10.47;5.13;;;;;;;;;;4993858;28;20472;-78
2022/04/10 07:03:37;;;;;;;8.27;4.30;;;;;;;;;;4994345;28;20867;-79
2022/04/10 07:06:03;;;;;;;10.33;4.70;;;5.00;1.00;;;;;;4993998;28;20896;-78
2022/04/10 07:08:29;;;;;;;6.17;4.67;;;;;;;;;;4993815;28;20465;-79
2022/04/10 07:10:58;;;;;;;10.93;4.70;;;5.00;1.00;;;;;;4993710;28;20541;-79
2022/04/10 07:13:24;;;;;;;5.90;4.50;;;;;;;;;;5006392;28;20443;-79
2022/04/10 07:15:52;;;;;;;8.35;4.75;;;5.00;1.00;;;;;;4994249;28;21031;-80
2022/04/10 07:18:18;;;;;;;7.00;4.20;;;5.00;1.00;;;;;;4993485;28;20557;-80
2022/04/10 07:20:44;;;;;;;5.70;4.30;;;5.20;1.00;;;;;;4980970;28;20431;-77
2022/04/10 07:25:54;;;;;;;4.27;3.87;;;5.40;1.00;;;;;;4993715;28;20404;-79
2022/04/10 07:28:20;;;;;;;12.43;4.23;;;5.50;1.00;;;;;;4993294;28;20429;-80
2022/04/10 07:30:46;;;;;;;7.37;3.90;;;5.60;1.00;;;;;;4993184;28;20711;-80
2022/04/10 07:33:12;;;;;;;7.00;4.00;;;;;;;;;;4993716;28;20431;-78
2022/04/10 07:35:44;;;;;;;4.67;4.17;;;5.50;1.00;;;;;;4993578;28;20460;-78
2022/04/10 07:38:11;;;;;;;8.63;4.70;;;5.50;1.00;;;;;;4993434;28;20421;-80
2022/04/10 07:40:40;;;;;;;5.50;3.67;;;5.60;1.00;;;;;;5008217;28;20460;-81
2022/04/10 07:43:06;;;;;;;8.00;4.20;;;5.70;1.00;;;;;;4993246;28;20428;-81
2022/04/10 07:48:17;;;;;;;4.70;4.30;;;;;;;;;;4993276;28;20571;-81
2022/04/10 07:50:43;;;;;;;6.00;3.97;;;;;;;;;;4993029;28;20927;-81
2022/04/10 07:53:09;;;;;;;4.93;4.00;;;;;;;;;;4993309;28;20423;-81
2022/04/10 07:55:35;;;;;;;5.50;4.00;;;6.00;1.00;;;;;;4992978;28;21027;-78
2022/04/10 07:58:01;;;;;;;4.23;3.80;;;;;;;;;;4992965;28;20432;-77
2022/04/10 08:00:32;;;;;;;5.37;4.00;;;;;;;;;;4993547;28;20409;-77
2022/04/10 08:02:59;;;;;;;5.27;4.40;;;6.60;1.00;;;;;;4992014;28;20420;-77
2022/04/10 08:05:25;;;;;;;9.70;4.60;;;;;;;;;;4992903;28;20807;-77
2022/04/10 08:07:51;;;;;;;4.17;3.77;;;;;;;;;;4993431;28;20412;-77
2022/04/10 08:10:18;;;;;;;4.97;4.07;;;;;;;;;;4993385;28;20837;-79
2022/04/10 08:12:44;;;;;;;7.93;4.00;;;7.80;1.00;;;;;;4999806;28;20522;-72
2022/04/10 08:15:11;;;;;;;5.70;4.30;;;7.70;1.00;;;;;;4998729;28;20464;-72
2022/04/10 08:17:37;;;;;;;5.40;4.00;;;7.60;1.00;;;;;;4992855;28;20432;-71
2022/04/10 08:20:04;;;;;;;6.60;3.93;;;7.80;1.00;;;;;;4993097;28;20523;-71
2022/04/10 08:22:36;;;;;;;7.50;3.70;;;7.70;1.00;;;;;;4993104;28;20423;-71
2022/04/10 08:25:10;;;;;;;5.90;3.60;;;7.70;1.00;;;;;;4993001;28;20471;-79
2022/04/10 08:27:36;;;;;;;7.20;3.40;;;;;;;;;;4991828;28;20483;-79
2022/04/10 08:30:03;;;;;;;6.00;3.73;;;7.70;1.00;;;;;;4993057;28;20900;-79
2022/04/10 08:32:40;;;;;;;8.13;4.20;;;7.80;1.00;;;;;;4993405;28;20814;-79
2022/04/10 08:35:07;;;;;;;4.83;4.33;;;8.00;1.00;;;;;;4992810;28;20431;-78
2022/04/10 08:37:33;;;;;;;6.70;3.97;;;;;;;;;;4992798;28;20460;-78
2022/04/10 08:39:59;;;;;;;8.70;4.20;;;;;;;;;;4993188;28;20487;-87
2022/04/10 08:42:25;;;;;;;12.13;4.57;;;8.10;1.00;;;;;;4993957;28;20444;-87
2022/04/10 08:44:51;;;;;;;8.27;4.60;;;;;;;;;;4993117;28;20495;-83
2022/04/10 08:47:21;;;;;;;7.03;4.37;;;;;;;;;;4992750;28;20188;-83
2022/04/10 08:49:50;;;;;;;8.50;4.90;;;7.50;1.00;;;;;;4992936;28;20930;-82
2022/04/10 08:52:18;;;;;;;6.63;4.70;;;7.40;1.00;;;;;;4995770;28;20891;-82
2022/04/10 08:54:45;;;;;;;8.20;4.10;;;7.40;1.00;;;;;;4996565;28;20515;-79
2022/04/10 08:57:11;;;;;;;5.33;4.80;;;;;;;;;;4996039;28;20460;-79
2022/04/10 08:59:37;;;;;;;9.10;4.77;;;;;;;;;;4995592;28;20425;-78
2022/04/10 09:02:04;;;;;;;6.00;4.73;;;7.60;1.00;;;;;;4992713;28;20483;-78
2022/04/10 09:04:31;;;;;;;6.40;4.20;;;;;;;;;;4996228;28;20463;-79
2022/04/10 09:07:08;;;;;;;4.37;3.93;;;7.80;1.00;;;;;;4996210;28;20908;-78
2022/04/10 09:20:27;;;;;;;8.70;4.47;;;8.10;1.00;;;;;;4984513;28;20471;-80
2022/04/10 09:26:15;;;;;;;7.80;4.23;;;;;;;;;;4996300;28;20475;-81
2022/04/10 09:32:14;;;;;;;10.63;4.00;;;;;;;;;;4996095;28;20400;-84
2022/04/10 09:34:40;;;;;;;5.03;3.70;;;;;;;;;;4999796;28;20432;-79
2022/04/10 09:37:06;;;;;;;6.40;3.60;;;;;;;;;;4995688;28;20460;-76
2022/04/10 09:39:32;;;;;;;6.53;4.27;;;;;;;;;;4995830;28;20471;-77
2022/04/10 09:42:12;;;;;;;5.37;3.87;;;8.50;1.00;;;;;;4995824;28;20500;-83
2022/04/10 09:44:39;;;;;;;4.97;3.63;;;8.50;1.00;;;;;;5009684;28;20488;-80
2022/04/10 09:47:09;;;;;;;6.40;3.60;;;8.70;1.00;;;;;;4995484;28;20460;-80
2022/04/10 09:49:37;;;;;;;14.23;4.70;;;8.90;1.00;;;;;;5010230;28;20810;-79
2022/04/10 09:52:11;;;;;;;5.73;3.50;;;9.30;1.00;;;;;;4994738;28;20967;-81
2022/04/10 09:54:46;;;;;;;12.50;4.50;;;9.20;1.00;;;;;;5010239;28;20435;-75
2022/04/10 09:57:15;;;;;;;5.37;2.83;;;9.30;1.00;;;;;;4994759;28;20539;-80
2022/04/10 09:59:43;;;;;;;4.53;2.97;;;9.40;1.00;;;;;;4994046;28;20923;-84
2022/04/10 10:02:12;;;;;;;7.27;4.00;;;9.50;1.00;;;;;;4994629;28;20421;-80
2022/04/10 10:04:38;;;;;;;6.00;4.60;;;9.40;1.00;;;;;;4995096;28;20429;-80
2022/04/10 10:07:12;;;;;;;5.17;4.67;;;9.50;1.00;;;;;;4995038;28;20499;-80
2022/04/10 10:09:39;;;;;;;6.17;4.07;;;;;;;;;;4994657;28;20900;-81
2022/04/10 10:12:05;;;;;;;6.20;4.20;;;;;;;;;;4997049;28;20515;-82
2022/04/10 10:14:33;;;;;;;4.13;3.70;;;10.40;1.00;;;;;;4999190;28;20432;-82
2022/04/10 10:17:00;;;;;;;5.70;3.70;;;10.40;1.00;;;;;;4993987;28;20424;-82
2022/04/10 10:19:29;;;;;;;5.53;3.50;;;10.90;1.00;;;;;;4994238;28;20516;-82
2022/04/10 10:21:56;;;;;;;4.60;3.27;;;10.80;1.00;;;;;;4994990;28;20876;-83
2022/04/10 10:24:29;;;;;;;5.50;2.50;;;10.50;1.00;;;;;;4993603;28;20421;-82
2022/04/10 10:30:41;;;;;;;2.73;2.40;;;10.40;1.00;;;;;;4995559;28;20391;-80
2022/04/10 10:33:36;;;;;;;2.20;2.03;;;10.60;1.00;;;;;;4994251;28;20440;-80
2022/04/10 10:39:23;;;;;;;5.00;2.60;;;11.00;1.00;;;;;;4987996;28;20427;-80
2022/04/10 10:51:57;;;;;;;2.63;2.20;;;11.60;1.00;;;;;;4994973;28;20881;-79
2022/04/10 10:57:44;;;;;;;9.30;3.27;;;12.00;99.90;;;;;;4994772;28;20566;-80
2022/04/10 11:03:32;;;;;;;5.30;2.90;;;11.40;99.90;;;;;;4994909;28;20212;-79
2022/04/10 11:09:29;;;;;;;5.37;2.43;;;11.70;1.00;;;;;;4988710;28;20767;-79
2022/04/10 11:15:21;;;;;;;2.70;2.10;;;11.90;99.90;;;;;;4993855;28;20439;-82
2022/04/10 11:21:16;;;;;;;2.63;2.13;;;12.10;99.90;;;;;;4994431;28;20382;-82
2022/04/10 11:23:45;;;;;;;5.60;2.53;;;12.20;99.90;;;;;;4994594;28;20389;-82
2022/04/10 11:26:16;;;;;;;4.90;2.20;;;12.60;99.90;;;;;;4994623;28;20407;-78
2022/04/10 11:32:05;;;;;;;2.17;1.90;;;12.50;99.90;;;;;;4986005;28;20444;-78
2022/04/10 11:34:32;;;;;;;2.20;2.00;;;;;;;;;;4993123;28;20451;-78
2022/04/10 11:40:23;;;;;;;5.83;2.20;;;12.60;99.90;;;;;;4986990;28;20402;-82
2022/04/10 11:52:59;;;;;;;4.70;2.33;;;11.90;99.90;;;;;;4974779;28;20405;-82
2022/04/10 11:58:47;;;;;;;4.50;2.27;;;10.90;99.90;;;;;;4993929;28;21081;-81
2022/04/10 12:01:28;;;;;;;5.27;2.90;;;10.70;99.90;;;;;;4994395;28;20405;-81
2022/04/10 12:14:00;;;;;;;8.40;3.70;;;9.90;1.00;;;;;;4980752;28;20436;-80
2022/04/10 12:19:53;;;;;;;4.23;3.17;;;10.60;1.00;;;;;;4993763;28;20185;-82
2022/04/10 12:23:11;;;;;;;5.30;3.63;;;11.00;1.00;;;;;;4994195;28;20394;-80
2022/04/10 12:28:59;;;;;;;7.87;3.50;;;11.20;1.00;;;;;;4997666;28;20392;-80
2022/04/10 12:35:11;;;;;;;3.30;3.00;;;11.50;99.90;;;;;;4997376;28;20947;-81
2022/04/10 12:44:24;;;;;;;4.23;3.43;;;12.00;1.00;;;;;;4996814;28;20841;-77
2022/04/10 12:47:42;;;;;;;6.73;3.87;;;12.00;99.90;;;;;;4997250;28;20472;-77
2022/04/10 12:50:16;;;;;;;6.33;4.47;;;12.30;99.90;;;;;;4995638;28;20412;-77
2022/04/10 12:56:19;;;;;;;5.47;3.60;;;12.30;99.90;;;;;;4985454;28;20994;-77
2022/04/10 12:58:48;;;;;;;6.53;3.50;;;12.50;99.90;;;;;;4994879;28;20451;-76
2022/04/10 13:01:30;;;;;;;4.17;3.30;;;12.70;99.90;;;;;;4995274;28;20433;-76
2022/04/10 13:03:58;;;;;;;5.33;3.13;;;13.20;99.90;;;;;;4984224;28;20395;-76
2022/04/10 13:07:00;;;;;;;2.30;2.10;;;12.80;99.90;;;;;;4995129;28;20474;-77
2022/04/10 13:19:37;;;;;;;2.83;2.37;;;13.70;99.90;;;;;;4920320;29;20432;-80
2022/04/10 13:28:45;;;;;;;4.37;1.83;;;13.20;99.90;;;;;;4918109;29;20439;-77
2022/04/10 13:34:52;;;;;;;3.70;2.50;;;12.70;99.90;;;;;;4928336;29;20726;-77
2022/04/10 13:37:46;;;;;;;3.60;2.63;;;12.50;99.90;;;;;;4935994;29;20449;-76
2022/04/10 13:40:22;;;;;;;2.97;2.63;;;12.60;99.90;;;;;;4927516;29;20397;-76
2022/04/10 13:42:49;;;;;;;11.53;3.80;;;;;;;;;;4943586;28;20391;-76
2022/04/10 13:45:22;;;;;;;7.30;3.97;;;12.90;99.90;;;;;;4996619;28;20415;-76
2022/04/10 13:48:04;;;;;;;6.87;3.50;;;13.00;99.90;;;;;;4996029;28;20400;-77
2022/04/10 13:50:58;;;;;;;9.43;4.20;;;13.00;99.90;;;;;;4996223;28;20416;-77
2022/04/10 13:56:46;;;;;;;6.03;3.50;;;13.20;99.90;;;;;;4988959;28;20484;-79
2022/04/10 14:05:55;;;;;;;5.60;3.97;;;13.80;99.90;;;;;;4996022;28;20898;-79
2022/04/10 14:11:43;;;;;;;3.70;2.80;;;13.90;99.90;;;;;;4995594;28;20604;-79
2022/04/10 14:14:40;;;;;;;5.13;3.50;;;14.30;99.90;;;;;;4996069;28;20490;-77
2022/04/10 14:20:27;;;;;;;6.60;2.90;;;14.90;99.90;;;;;;4995797;28;20405;-77
2022/04/10 14:23:11;;;;;;;4.63;3.17;;;14.80;99.90;;;;;;4995737;28;20500;-77
2022/04/10 14:26:22;;;;;;;4.00;2.20;;;14.80;99.90;;;;;;4995641;28;20220;-77
2022/04/10 14:28:53;;;;;;;5.53;2.07;;;15.00;99.90;;;;;;4995777;28;20411;-77
2022/04/10 14:32:04;;;;;;;3.97;2.40;;;15.00;99.90;;;;;;4995552;28;20414;-76
2022/04/10 14:34:33;;;;;;;7.93;2.30;;;14.70;99.90;;;;;;4995509;28;20375;-77
2022/04/10 14:37:28;;;;;;;4.30;2.57;;;15.00;99.90;;;;;;4995268;28;20477;-77
2022/04/10 14:40:40;;;;;;;4.13;1.90;;;14.90;99.90;;;;;;4995407;28;20412;-77
2022/04/10 14:46:58;;;;;;;2.23;2.03;;;14.50;99.90;;;;;;4984041;28;20396;-76
2022/04/10 14:56:08;;;;;;;3.20;2.17;;;;;;;;;;4994881;28;20538;-76
2022/04/10 14:59:22;;;;;;;4.30;1.70;;;15.20;99.90;;;;;;4994975;28;20406;-81
2022/04/10 15:11:53;;;;;;;6.73;2.60;;;18.50;99.90;;;;;;4994384;28;20426;-81
2022/04/10 15:17:46;;;;;;;2.43;1.90;;;19.60;99.90;;;;;;4985949;28;20236;-76
2022/04/10 15:20:28;;;;;;;2.50;1.90;;;20.20;99.90;;;;;;4994944;28;20417;-77
2022/04/10 15:23:16;;;;;;;4.80;1.87;;;21.30;99.90;;;;;;4994506;28;20480;-77
2022/04/10 15:26:22;;;;;;;2.37;1.57;;;21.70;99.90;;;;;;4994648;28;20457;-76
2022/04/10 15:29:22;;;;;;;2.70;1.47;;;21.80;99.90;;;;;;4995053;28;20447;-88
2022/04/10 15:35:10;;;;;;;7.07;2.17;;;19.10;99.90;;;;;;4983497;28;20907;-78
2022/04/10 15:41:01;;;;;;;3.07;1.73;;;;;;;;;;4993988;28;20778;-76
2022/04/10 15:46:49;;;;;;;5.87;2.27;;;18.00;99.90;;;;;;4985438;28;20513;-78
2022/04/10 15:50:10;;;;;;;3.83;1.83;;;18.80;99.90;;;;;;4993703;28;20544;-80
2022/04/10 15:55:57;;;;;;;2.90;1.27;;;19.50;99.90;;;;;;4994157;28;20464;-79
2022/04/10 15:58:23;;;;;;;3.10;1.23;;;;;;;;;;4994102;28;20787;-75
2022/04/10 16:00:53;;;;;;;2.40;1.60;;;19.80;99.90;;;;;;4996446;28;20632;-74
2022/04/10 16:03:19;;;;;;;5.80;1.77;;;19.90;99.90;;;;;;4998480;28;20418;-74
2022/04/10 16:05:58;;;;;;;2.73;1.80;;;19.30;99.90;;;;;;4998538;28;20439;-74
2022/04/10 16:08:24;;;;;;;2.57;1.70;;;18.50;99.90;;;;;;4998059;28;20433;-74
2022/04/10 16:11:22;;;;;;;2.60;1.20;;;18.70;99.90;;;;;;4998031;28;20802;-74
2022/04/10 16:13:53;;;;;;;5.80;1.43;;;;;;;;;;5007908;28;20214;-74
2022/04/10 16:16:22;;;;;;;4.90;1.63;;;19.70;99.90;;;;;;4997678;28;21047;-74
2022/04/10 16:18:48;;;;;;;2.00;1.47;;;20.50;99.90;;;;;;4997934;28;20790;-75
2022/04/10 16:21:14;;;;;;;2.97;1.60;;;21.50;99.90;;;;;;4997759;28;20434;-76
2022/04/10 16:23:40;;;;;;;7.33;1.80;;;21.90;99.90;;;;;;4998014;28;20180;-76
2022/04/10 16:26:23;;;;;;;6.10;1.53;;;24.00;99.90;;;;;;4998131;28;20192;-77
2022/04/10 16:32:10;;;;;;;1.20;1.10;;;23.90;99.90;;;;;;4993747;28;20507;-79
2022/04/10 16:41:20;;;;;;;5.20;1.73;;;19.20;99.90;;;;;;4997039;28;20417;-80
2022/04/10 16:43:52;;;;;;;2.90;1.20;;;17.90;99.90;;;;;;4997703;28;20782;-75
2022/04/10 16:46:23;;;;;;;3.47;1.87;;;16.80;99.90;;;;;;4997824;28;20165;-74
2022/04/10 16:48:52;;;;;;;76.17;14.03;;;15.90;99.90;;;;;;4979149;28;20445;-74
2022/04/10 16:51:29;;;;;;;1.60;1.23;;;15.40;99.90;;;;;;4997701;28;20880;-74
2022/04/10 16:54:46;;;;;;;3.40;1.60;;;15.00;99.90;;;;;;4994188;28;20424;-76
2022/04/10 16:56:58;;;;;;;2.03;1.20;;;14.20;99.90;;;;;;4996932;28;20496;-75
2022/04/10 16:59:53;;;;;;;2.40;1.37;;;13.90;99.90;;;;;;4986935;28;20390;-81